createdAt,value
2022-12-22T00:03:01.898Z,4.47
2022-12-22T00:05:39.981Z,4.48
2022-12-22T00:08:10.831Z,4.48
2022-12-22T00:10:41.864Z,4.48
2022-12-22T00:13:12.594Z,4.49
2022-12-22T00:15:43.326Z,4.49
2022-12-22T00:18:13.958Z,4.48
2022-12-22T00:20:44.999Z,4.49
2022-12-22T00:23:16.728Z,4.49
2022-12-22T00:25:47.599Z,4.49
2022-12-22T00:28:18.228Z,4.50
2022-12-22T00:30:49.283Z,4.51
2022-12-22T00:33:23.442Z,4.51
2022-12-22T00:35:54.217Z,4.51
2022-12-22T00:38:34.473Z,4.52
2022-12-22T00:41:05.415Z,4.52
2022-12-22T00:43:36.366Z,4.52
2022-12-22T00:46:08.461Z,4.54
2022-12-22T00:48:43.614Z,4.52
2022-12-22T00:51:14.174Z,4.52
2022-12-22T00:53:44.818Z,4.52
2022-12-22T00:56:16.985Z,4.52
2022-12-22T00:58:47.821Z,4.52
2022-12-22T01:01:18.965Z,4.52
2022-12-22T01:03:49.648Z,4.51
2022-12-22T01:06:21.978Z,4.51
2022-12-22T01:08:54.648Z,4.52
2022-12-22T01:11:26.731Z,4.51
2022-12-22T01:13:57.552Z,4.52
2022-12-22T01:16:31.152Z,4.52
2022-12-22T01:19:01.585Z,4.53
2022-12-22T01:21:34.462Z,4.53
2022-12-22T01:24:05.506Z,4.53
2022-12-22T01:26:38.001Z,4.52
2022-12-22T01:29:08.815Z,4.53
2022-12-22T01:31:51.430Z,4.53
2022-12-22T01:34:22.779Z,4.54
2022-12-22T01:36:53.508Z,4.54
2022-12-22T01:39:24.254Z,4.53
2022-12-22T01:41:55.388Z,4.53
2022-12-22T01:44:37.105Z,4.53
2022-12-22T01:47:07.607Z,4.53
2022-12-22T01:50:01.081Z,4.53
2022-12-22T01:52:36.618Z,4.54
2022-12-22T01:55:08.487Z,4.53
2022-12-22T01:57:39.225Z,4.52
2022-12-22T02:00:09.950Z,4.54
2022-12-22T02:02:45.879Z,4.55
2022-12-22T02:05:19.719Z,4.55
2022-12-22T02:08:01.406Z,4.56
2022-12-22T02:10:32.138Z,4.56
2022-12-22T02:13:18.334Z,4.57
2022-12-22T02:15:54.346Z,4.58
2022-12-22T02:19:08.750Z,4.59
2022-12-22T02:21:44.200Z,4.58
2022-12-22T02:24:21.499Z,4.58
2022-12-22T02:27:01.739Z,4.58
2022-12-22T02:29:36.468Z,4.58
2022-12-22T02:32:07.305Z,4.58
2022-12-22T02:34:37.934Z,4.59
2022-12-22T02:37:22.916Z,4.59
2022-12-22T02:40:16.266Z,4.60
2022-12-22T02:42:59.912Z,4.61
2022-12-22T02:45:40.167Z,4.60
2022-12-22T02:48:21.649Z,4.60
2022-12-22T02:51:04.671Z,4.59
2022-12-22T02:53:38.376Z,4.59
2022-12-22T02:56:09.105Z,4.58
2022-12-22T02:58:40.455Z,4.57
2022-12-22T03:01:11.803Z,4.57
2022-12-22T03:03:42.826Z,4.55
2022-12-22T03:06:13.889Z,4.54
2022-12-22T03:08:44.419Z,4.52
2022-12-22T03:11:15.058Z,4.50
2022-12-22T03:13:45.885Z,4.50
2022-12-22T03:16:16.536Z,4.50
2022-12-22T03:18:47.357Z,4.49
2022-12-22T03:21:18.094Z,4.47
2022-12-22T03:23:48.714Z,4.48
2022-12-22T03:26:00.710Z,4.48
2022-12-22T03:28:12.602Z,4.47
2022-12-22T03:30:24.419Z,4.46
2022-12-22T03:32:36.183Z,4.46
2022-12-22T03:34:48.074Z,4.46
2022-12-22T03:36:59.977Z,4.45
2022-12-22T03:39:11.762Z,4.44
2022-12-22T03:41:42.287Z,4.43
2022-12-22T03:44:13.328Z,4.41
2022-12-22T03:46:31.640Z,4.39
2022-12-22T03:49:05.277Z,4.38
2022-12-22T03:51:16.867Z,4.37
2022-12-22T03:53:28.543Z,4.36
2022-12-22T03:55:40.541Z,4.34
2022-12-22T03:57:52.232Z,4.33
2022-12-22T04:00:05.281Z,4.31
2022-12-22T04:02:24.207Z,4.29
2022-12-22T04:04:36.728Z,4.25
2022-12-22T04:06:49.537Z,4.19
2022-12-22T04:09:02.235Z,4.12
2022-12-22T04:11:35.123Z,4.07
2022-12-22T04:13:47.118Z,4.01
2022-12-22T04:15:59.174Z,3.98
2022-12-22T04:18:11.205Z,3.95
2022-12-22T04:20:26.859Z,3.93
2022-12-22T04:22:38.983Z,3.87
2022-12-22T04:24:50.574Z,3.84
2022-12-22T04:27:02.565Z,3.80
2022-12-22T04:29:14.556Z,3.76
2022-12-22T04:31:26.145Z,3.72
2022-12-22T04:33:38.291Z,3.72
2022-12-22T04:35:50.132Z,3.71
2022-12-22T04:38:02.030Z,3.72
2022-12-22T04:40:14.142Z,3.72
2022-12-22T04:42:26.423Z,3.73
2022-12-22T04:44:38.621Z,3.72
2022-12-22T04:46:50.311Z,3.73
2022-12-22T04:49:02.305Z,3.71
2022-12-22T04:51:14.199Z,3.65
2022-12-22T04:53:28.451Z,3.57
2022-12-22T04:55:46.072Z,3.48
2022-12-22T04:57:57.659Z,3.39
2022-12-22T05:00:10.673Z,3.29
2022-12-22T05:02:22.607Z,3.18
2022-12-22T05:04:34.668Z,3.09
2022-12-22T05:06:46.456Z,3.01
2022-12-22T05:08:58.143Z,3.00
2022-12-22T05:11:10.960Z,3.00
2022-12-22T05:13:22.745Z,2.99
2022-12-22T05:15:36.564Z,2.98
2022-12-22T05:17:49.112Z,3.02
2022-12-22T05:20:00.880Z,3.05
2022-12-22T05:22:12.570Z,3.10
2022-12-22T05:24:24.561Z,3.12
2022-12-22T05:26:36.351Z,3.11
2022-12-22T05:28:48.347Z,3.09
2022-12-22T05:31:12.863Z,3.07
2022-12-22T05:33:24.833Z,3.04
2022-12-22T05:35:36.625Z,3.00
2022-12-22T05:37:48.204Z,2.98
2022-12-22T05:40:00.138Z,2.95
2022-12-22T05:42:12.299Z,2.93
2022-12-22T05:44:23.989Z,2.88
2022-12-22T05:46:35.830Z,2.83
2022-12-22T05:48:47.567Z,2.78
2022-12-22T05:50:59.661Z,2.74
2022-12-22T05:53:11.244Z,2.73
2022-12-22T05:55:23.139Z,2.71
2022-12-22T05:57:35.642Z,2.70
2022-12-22T05:59:47.128Z,2.69
2022-12-22T06:01:58.844Z,2.72
2022-12-22T06:04:11.162Z,2.74
2022-12-22T06:06:23.428Z,2.76
2022-12-22T06:08:35.107Z,2.78
2022-12-22T06:10:47.308Z,2.80
2022-12-22T06:12:58.890Z,2.81
2022-12-22T06:15:13.539Z,2.82
2022-12-22T06:17:25.439Z,2.84
2022-12-22T06:19:37.542Z,2.85
2022-12-22T06:21:49.735Z,2.86
2022-12-22T06:24:01.927Z,2.84
2022-12-22T06:26:13.639Z,2.81
2022-12-22T06:28:26.344Z,2.79
2022-12-22T06:30:38.227Z,2.76
2022-12-22T06:32:50.128Z,2.75
2022-12-22T06:35:02.116Z,2.75
2022-12-22T06:37:13.698Z,2.75
2022-12-22T06:39:25.692Z,2.74
2022-12-22T06:41:56.221Z,2.73
2022-12-22T06:44:08.423Z,2.74
2022-12-22T06:46:20.462Z,2.76
2022-12-22T06:48:32.532Z,2.77
2022-12-22T06:50:44.312Z,2.80
2022-12-22T06:52:56.513Z,2.82
2022-12-22T06:55:08.917Z,2.85
2022-12-22T06:57:20.814Z,2.87
2022-12-22T06:59:32.701Z,2.90
2022-12-22T07:01:44.701Z,2.92
2022-12-22T07:03:56.895Z,2.92
2022-12-22T07:06:08.982Z,2.92
2022-12-22T07:08:20.874Z,2.92
2022-12-22T07:10:51.200Z,2.92
2022-12-22T07:13:19.450Z,2.92
2022-12-22T07:15:31.165Z,2.93
2022-12-22T07:17:43.467Z,2.93
2022-12-22T07:19:55.591Z,2.95
2022-12-22T07:22:07.765Z,2.94
2022-12-22T07:24:23.954Z,2.95
2022-12-22T07:26:35.657Z,2.96
2022-12-22T07:28:47.436Z,2.96
2022-12-22T07:30:59.379Z,2.99
2022-12-22T07:33:11.730Z,2.98
2022-12-22T07:35:23.629Z,2.97
2022-12-22T07:37:35.307Z,2.97
2022-12-22T07:39:47.321Z,2.98
2022-12-22T07:42:17.828Z,3.00
2022-12-22T07:44:29.828Z,3.01
2022-12-22T07:46:41.649Z,3.02
2022-12-22T07:49:14.391Z,3.04
2022-12-22T07:51:26.707Z,3.05
2022-12-22T07:53:40.340Z,3.06
2022-12-22T07:55:52.328Z,3.09
2022-12-22T07:58:04.439Z,3.09
2022-12-22T08:00:17.068Z,3.11
2022-12-22T08:02:33.925Z,3.12
2022-12-22T08:04:51.403Z,3.12
2022-12-22T08:07:03.371Z,3.12
2022-12-22T08:09:17.920Z,3.13
2022-12-22T08:11:29.605Z,3.15
2022-12-22T08:13:42.315Z,3.18
2022-12-22T08:15:53.935Z,3.20
2022-12-22T08:18:06.103Z,3.22
2022-12-22T08:20:17.993Z,3.25
2022-12-22T08:22:30.307Z,3.27
2022-12-22T08:24:42.214Z,3.28
2022-12-22T08:27:00.120Z,3.30
2022-12-22T08:29:20.921Z,3.31
2022-12-22T08:31:33.048Z,3.32
2022-12-22T08:33:46.139Z,3.34
2022-12-22T08:36:07.533Z,3.37
2022-12-22T08:38:19.653Z,3.39
2022-12-22T08:40:32.591Z,3.40
2022-12-22T08:42:46.014Z,3.42
2022-12-22T08:44:58.195Z,3.44
2022-12-22T08:47:15.037Z,3.46
2022-12-22T08:49:29.176Z,3.48
2022-12-22T08:51:41.068Z,3.52
2022-12-22T08:54:08.419Z,3.56
2022-12-22T08:56:20.185Z,3.59
2022-12-22T08:58:31.979Z,3.64
2022-12-22T09:00:44.830Z,3.69
2022-12-22T09:02:57.474Z,3.74
2022-12-22T09:05:09.740Z,3.79
2022-12-22T09:07:21.798Z,3.84
2022-12-22T09:09:35.019Z,3.89
2022-12-22T09:11:46.625Z,4.07
2022-12-22T09:14:00.615Z,4.44
2022-12-22T09:16:13.254Z,4.76
2022-12-22T09:18:24.846Z,5.03
2022-12-22T09:20:36.733Z,5.27
2022-12-22T09:22:48.728Z,5.46
2022-12-22T09:25:00.628Z,5.64
2022-12-22T09:27:13.130Z,5.84
2022-12-22T09:29:24.918Z,6.06
2022-12-22T09:31:36.965Z,6.27
2022-12-22T09:33:49.430Z,6.30
2022-12-22T09:36:01.005Z,6.15
2022-12-22T09:38:21.399Z,5.97
2022-12-22T09:40:33.807Z,5.93
2022-12-22T09:42:45.488Z,6.07
2022-12-22T09:44:57.278Z,6.23
2022-12-22T09:47:20.856Z,6.42
2022-12-22T09:49:32.714Z,6.51
2022-12-22T09:51:49.159Z,6.39
2022-12-22T09:54:02.260Z,6.23
2022-12-22T09:56:16.801Z,6.07
2022-12-22T09:58:32.595Z,5.95
2022-12-22T10:00:51.050Z,5.83
2022-12-22T10:03:18.445Z,5.71
2022-12-22T10:05:51.517Z,5.64
2022-12-22T10:08:11.223Z,5.57
2022-12-22T10:10:39.685Z,5.53
2022-12-22T10:12:54.776Z,5.50
2022-12-22T10:15:14.141Z,5.50
2022-12-22T10:17:31.822Z,5.51
2022-12-22T10:19:44.823Z,5.54
2022-12-22T10:21:56.614Z,5.57
2022-12-22T10:24:18.475Z,5.62
2022-12-22T10:26:34.600Z,5.63
2022-12-22T10:29:03.631Z,5.65
2022-12-22T10:31:22.952Z,5.80
2022-12-22T10:33:36.945Z,6.17
2022-12-22T10:35:56.837Z,6.47
2022-12-22T10:38:21.419Z,6.73
2022-12-22T10:40:43.824Z,6.98
2022-12-22T10:42:56.248Z,7.19
2022-12-22T10:45:18.201Z,7.39
2022-12-22T10:47:31.748Z,7.58
2022-12-22T10:52:29.984Z,7.83
2022-12-22T10:54:45.074Z,7.91
2022-12-22T10:57:25.216Z,7.92
2022-12-22T10:59:53.025Z,8.01
2022-12-22T11:02:26.989Z,8.05
2022-12-22T11:04:38.873Z,7.99
2022-12-22T11:06:52.416Z,7.85
2022-12-22T11:09:31.972Z,7.69
2022-12-22T11:11:44.719Z,7.54
2022-12-22T11:14:08.964Z,7.40
2022-12-22T11:16:28.589Z,7.29
2022-12-22T11:18:55.059Z,7.22
2022-12-22T11:21:24.554Z,7.15
2022-12-22T11:23:56.220Z,7.07
2022-12-22T11:26:49.380Z,7.02
2022-12-22T11:29:16.118Z,6.96
2022-12-22T11:31:41.939Z,6.91
2022-12-22T11:34:09.741Z,6.87
2022-12-22T11:36:22.867Z,6.83
2022-12-22T11:38:50.225Z,6.79
2022-12-22T11:41:23.265Z,6.76
2022-12-22T11:43:46.113Z,6.76
2022-12-22T11:46:18.742Z,6.77
2022-12-22T11:48:59.560Z,6.73
2022-12-22T11:51:30.197Z,6.67
2022-12-22T11:53:58.687Z,6.62
2022-12-22T11:56:23.169Z,6.60
2022-12-22T11:59:08.289Z,6.56
2022-12-22T12:01:47.896Z,6.52
2022-12-22T12:04:09.342Z,6.48
2022-12-22T12:06:26.422Z,6.47
2022-12-22T12:08:41.680Z,6.46
2022-12-22T12:11:25.930Z,6.46
2022-12-22T12:14:05.673Z,6.45
2022-12-22T12:16:36.677Z,6.45
2022-12-22T12:19:11.240Z,6.46
2022-12-22T12:21:50.880Z,6.47
2022-12-22T12:24:28.785Z,6.47
2022-12-22T12:26:53.589Z,6.48
2022-12-22T12:29:20.423Z,6.47
2022-12-22T12:31:38.450Z,6.47
2022-12-22T12:34:01.203Z,6.45
2022-12-22T12:36:53.139Z,6.44
2022-12-22T12:39:47.369Z,6.42
2022-12-22T12:42:11.910Z,6.40
2022-12-22T12:44:33.293Z,6.39
2022-12-22T12:46:54.080Z,6.39
2022-12-22T12:49:35.369Z,6.40
2022-12-22T12:51:57.482Z,6.41
2022-12-22T12:54:32.272Z,6.42
2022-12-22T12:57:32.597Z,6.41
2022-12-22T12:59:48.643Z,6.43
2022-12-22T13:02:00.770Z,6.44
2022-12-22T13:04:52.563Z,6.46
2022-12-22T13:07:05.031Z,6.45
2022-12-22T13:12:13.248Z,6.45
2022-12-22T13:14:58.868Z,6.45
2022-12-22T13:17:33.300Z,6.44
2022-12-22T13:19:48.443Z,6.44
2022-12-22T13:22:02.560Z,6.45
2022-12-22T13:24:25.748Z,6.45
2022-12-22T13:26:40.493Z,6.46
2022-12-22T13:28:57.692Z,6.46
2022-12-22T13:31:30.015Z,6.47
2022-12-22T13:33:45.113Z,6.49
2022-12-22T13:35:59.608Z,6.50
2022-12-22T13:38:29.414Z,6.50
2022-12-22T13:40:43.584Z,6.51
2022-12-22T13:43:03.714Z,6.54
2022-12-22T13:45:28.219Z,6.54
2022-12-22T13:47:42.934Z,6.52
2022-12-22T13:50:08.801Z,6.50
2022-12-22T13:52:25.627Z,6.48
2022-12-22T13:54:44.931Z,6.46
2022-12-22T13:57:04.553Z,6.44
2022-12-22T13:59:38.821Z,6.42
2022-12-22T14:02:04.048Z,6.38
2022-12-22T14:04:20.804Z,6.38
2022-12-22T14:06:39.168Z,6.37
2022-12-22T14:08:56.096Z,6.37
2022-12-22T14:11:10.275Z,6.35
2022-12-22T14:13:33.706Z,6.33
2022-12-22T14:15:46.857Z,6.32
2022-12-22T14:18:03.191Z,6.31
2022-12-22T14:20:35.273Z,6.30
2022-12-22T14:23:18.342Z,6.29
2022-12-22T14:25:39.073Z,6.26
2022-12-22T14:27:56.080Z,6.24
2022-12-22T14:30:27.580Z,6.23
2022-12-22T14:32:49.130Z,6.22
2022-12-22T14:35:25.018Z,6.22
2022-12-22T14:37:38.612Z,6.22
2022-12-22T14:39:59.218Z,6.24
2022-12-22T14:42:16.304Z,6.26
2022-12-22T14:44:43.884Z,6.28
2022-12-22T14:47:19.132Z,6.32
2022-12-22T14:49:36.306Z,6.34
2022-12-22T14:52:01.233Z,6.36
2022-12-22T14:54:21.014Z,6.37
2022-12-22T14:56:33.037Z,6.38
2022-12-22T14:58:50.769Z,6.38
2022-12-22T15:01:28.584Z,6.46
2022-12-22T15:03:41.810Z,6.45
2022-12-22T15:05:54.574Z,6.45
2022-12-22T15:08:44.532Z,6.44
2022-12-22T15:11:02.488Z,6.41
2022-12-22T15:13:24.390Z,6.41
2022-12-22T15:15:43.285Z,6.40
2022-12-22T15:18:01.279Z,6.39
2022-12-22T15:20:22.076Z,6.39
2022-12-22T15:22:42.350Z,6.38
2022-12-22T15:24:59.020Z,6.37
2022-12-22T15:27:14.382Z,6.36
2022-12-22T15:29:31.882Z,6.35
2022-12-22T15:31:46.603Z,6.35
2022-12-22T15:34:05.768Z,6.35
2022-12-22T15:36:22.140Z,6.35
2022-12-22T15:38:39.928Z,6.35
2022-12-22T15:40:56.819Z,6.36
2022-12-22T15:43:53.915Z,6.37
2022-12-22T15:45:52.926Z,6.37
2022-12-22T15:48:12.985Z,6.38
2022-12-22T15:50:41.994Z,6.40
2022-12-22T15:52:56.535Z,6.41
2022-12-22T15:55:17.215Z,6.40
2022-12-22T15:57:34.632Z,6.42
2022-12-22T15:59:52.187Z,6.43
2022-12-22T16:02:15.722Z,6.44
2022-12-22T16:04:35.404Z,6.44
2022-12-22T16:06:50.902Z,6.45
2022-12-22T16:09:08.555Z,6.46
2022-12-22T16:11:20.828Z,6.46
2022-12-22T16:13:33.034Z,6.47
2022-12-22T16:15:45.093Z,6.47
2022-12-22T16:17:58.453Z,6.47
2022-12-22T16:20:11.774Z,6.47
2022-12-22T16:22:32.589Z,6.46
2022-12-22T16:24:48.578Z,6.47
2022-12-22T16:27:02.522Z,6.47
2022-12-22T16:29:17.159Z,6.49
2022-12-22T16:31:28.830Z,6.50
2022-12-22T16:33:40.536Z,6.51
2022-12-22T16:35:52.483Z,6.52
2022-12-22T16:38:04.282Z,6.51
2022-12-22T16:40:19.305Z,6.52
2022-12-22T16:45:04.611Z,6.51
2022-12-22T16:47:23.153Z,6.51
2022-12-22T16:49:35.328Z,6.51
2022-12-22T16:51:53.154Z,6.51
2022-12-22T16:54:05.467Z,6.51
2022-12-22T16:56:20.540Z,6.50
2022-12-22T16:58:32.108Z,6.51
2022-12-22T17:00:45.637Z,6.50
2022-12-22T17:03:03.353Z,6.51
2022-12-22T17:05:29.241Z,6.49
2022-12-22T17:07:41.179Z,6.50
2022-12-22T17:09:58.097Z,6.50
2022-12-22T17:12:16.931Z,6.50
2022-12-22T17:14:36.766Z,6.51
2022-12-22T17:16:50.766Z,6.51
2022-12-22T17:19:05.422Z,6.52
2022-12-22T17:21:22.851Z,6.54
2022-12-22T17:23:41.164Z,6.54
2022-12-22T17:25:53.184Z,6.56
2022-12-22T17:28:05.791Z,6.54
2022-12-22T17:30:22.187Z,6.54
2022-12-22T17:32:34.503Z,6.55
2022-12-22T17:34:47.498Z,6.56
2022-12-22T17:37:01.950Z,6.57
2022-12-22T17:39:17.237Z,6.59
2022-12-22T17:41:30.253Z,6.60
2022-12-22T17:43:43.237Z,6.61
2022-12-22T17:45:55.162Z,6.62
2022-12-22T17:48:09.449Z,6.62
2022-12-22T17:50:23.277Z,6.63
2022-12-22T17:52:35.151Z,6.65
2022-12-22T17:54:49.491Z,6.65
2022-12-22T17:57:03.306Z,6.67
2022-12-22T17:59:15.017Z,6.67
2022-12-22T18:01:31.150Z,6.68
2022-12-22T18:03:43.234Z,6.69
2022-12-22T18:05:59.292Z,6.70
2022-12-22T18:08:20.582Z,6.71
2022-12-22T18:10:37.314Z,6.72
2022-12-22T18:12:49.725Z,6.73
2022-12-22T18:15:01.529Z,6.74
2022-12-22T18:17:31.634Z,6.74
2022-12-22T18:19:46.909Z,6.75
2022-12-22T18:21:59.157Z,6.76
2022-12-22T18:24:19.007Z,6.77
2022-12-22T18:26:31.800Z,6.79
2022-12-22T18:28:43.373Z,6.80
2022-12-22T18:30:55.065Z,6.82
2022-12-22T18:33:06.851Z,6.83
2022-12-22T18:35:21.103Z,6.84
2022-12-22T18:37:32.951Z,6.85
2022-12-22T18:39:47.855Z,6.86
2022-12-22T18:42:00.358Z,6.87
2022-12-22T18:44:17.431Z,6.88
2022-12-22T18:46:29.499Z,6.88
2022-12-22T18:48:41.772Z,6.89
2022-12-22T18:50:57.554Z,6.91
2022-12-22T18:53:19.379Z,6.92
2022-12-22T18:55:33.115Z,6.93
2022-12-22T18:57:49.622Z,6.95
2022-12-22T19:00:16.675Z,6.95
2022-12-22T19:02:30.746Z,6.97
2022-12-22T19:04:43.968Z,6.98
2022-12-22T19:06:56.557Z,7.00
2022-12-22T19:09:16.962Z,7.01
2022-12-22T19:11:39.693Z,7.02
2022-12-22T19:13:54.783Z,7.03
2022-12-22T19:16:08.250Z,7.03
2022-12-22T19:18:27.297Z,7.03
2022-12-22T19:20:42.758Z,7.03
2022-12-22T19:22:55.842Z,7.05
2022-12-22T19:25:23.538Z,7.05
2022-12-22T19:27:35.252Z,7.06
2022-12-22T19:29:48.200Z,7.06
2022-12-22T19:32:00.202Z,7.09
2022-12-22T19:34:24.592Z,7.08
2022-12-22T19:36:37.214Z,7.09
2022-12-22T19:38:57.253Z,7.10
2022-12-22T19:41:30.993Z,7.10
2022-12-22T19:43:46.665Z,7.10
2022-12-22T19:46:04.144Z,7.08
2022-12-22T19:48:22.695Z,7.09
2022-12-22T19:50:38.528Z,7.09
2022-12-22T19:52:52.369Z,7.08
2022-12-22T19:55:05.893Z,7.09
2022-12-22T19:57:22.590Z,7.10
2022-12-22T19:59:39.601Z,7.10
2022-12-22T20:01:52.264Z,7.11
2022-12-22T20:04:24.022Z,7.10
2022-12-22T20:06:39.161Z,7.10
2022-12-22T20:08:52.372Z,7.10
2022-12-22T20:11:17.238Z,7.10
2022-12-22T20:13:33.244Z,7.09
2022-12-22T20:15:46.133Z,7.09
2022-12-22T20:18:01.456Z,7.09
2022-12-22T20:20:16.885Z,7.10
2022-12-22T20:22:32.402Z,7.11
2022-12-22T20:24:47.078Z,7.11
2022-12-22T20:27:02.584Z,7.11
2022-12-22T20:29:15.547Z,7.11
2022-12-22T20:31:31.458Z,7.11
2022-12-22T20:33:44.234Z,7.10
2022-12-22T20:35:58.073Z,7.10
2022-12-22T20:38:16.126Z,7.10
2022-12-22T20:40:31.911Z,7.10
2022-12-22T20:42:46.385Z,7.09
2022-12-22T20:45:03.407Z,7.08
2022-12-22T20:47:22.237Z,7.07
2022-12-22T20:49:43.450Z,7.08
2022-12-22T20:51:56.145Z,7.09
2022-12-22T20:54:14.900Z,7.10
2022-12-22T20:56:40.146Z,7.10
2022-12-22T20:58:52.727Z,7.09
2022-12-22T21:01:10.828Z,7.08
2022-12-22T21:03:33.425Z,7.08
2022-12-22T21:05:48.909Z,7.07
2022-12-22T21:08:04.935Z,7.06
2022-12-22T21:10:24.500Z,7.08
2022-12-22T21:12:37.876Z,7.13
2022-12-22T21:14:52.724Z,7.18
2022-12-22T21:17:05.089Z,7.19
2022-12-22T21:19:19.830Z,7.18
2022-12-22T21:21:32.073Z,7.18
2022-12-22T21:23:44.084Z,7.15
2022-12-22T21:25:56.479Z,7.16
2022-12-22T21:28:11.737Z,7.16
2022-12-22T21:30:28.068Z,7.15
2022-12-22T21:32:40.042Z,7.14
2022-12-22T21:34:52.597Z,7.13
2022-12-22T21:37:05.881Z,7.10
2022-12-22T21:39:39.467Z,7.09
2022-12-22T21:42:00.580Z,7.07
2022-12-22T21:44:13.708Z,7.05
2022-12-22T21:46:25.642Z,7.05
2022-12-22T21:48:38.003Z,7.04
2022-12-22T21:50:50.453Z,7.02
2022-12-22T21:53:02.396Z,7.00
2022-12-22T21:55:18.995Z,6.99
2022-12-22T21:57:31.194Z,6.97
2022-12-22T21:59:43.596Z,6.95
2022-12-22T22:01:56.999Z,6.93
2022-12-22T22:04:13.329Z,6.90
2022-12-22T22:06:25.292Z,6.87
2022-12-22T22:08:37.009Z,6.85
2022-12-22T22:10:49.320Z,6.84
2022-12-22T22:13:02.944Z,6.82
2022-12-22T22:15:15.660Z,6.79
2022-12-22T22:17:27.545Z,6.76
2022-12-22T22:19:39.131Z,6.75
2022-12-22T22:21:51.239Z,6.72
2022-12-22T22:24:03.123Z,6.68
2022-12-22T22:26:15.113Z,6.63
2022-12-22T22:28:27.226Z,6.58
2022-12-22T22:30:42.124Z,6.53
2022-12-22T22:32:55.213Z,6.50
2022-12-22T22:35:07.297Z,6.46
2022-12-22T22:37:20.310Z,6.44
2022-12-22T22:39:32.519Z,6.41
2022-12-22T22:41:44.194Z,6.39
2022-12-22T22:43:57.931Z,6.37
2022-12-22T22:46:10.083Z,6.35
2022-12-22T22:48:23.574Z,6.34
2022-12-22T22:50:35.313Z,6.34
2022-12-22T22:52:48.062Z,6.34
2022-12-22T22:54:59.571Z,6.33
2022-12-22T22:57:11.232Z,6.31
2022-12-22T22:59:23.563Z,6.30
2022-12-22T23:01:35.358Z,6.28
2022-12-22T23:03:47.388Z,6.27
2022-12-22T23:06:08.254Z,6.26
2022-12-22T23:08:19.913Z,6.23
2022-12-22T23:10:36.062Z,6.20
2022-12-22T23:12:51.066Z,6.20
2022-12-22T23:15:03.265Z,6.19
2022-12-22T23:17:15.466Z,6.17
2022-12-22T23:19:27.565Z,6.14
2022-12-22T23:21:39.762Z,6.11
2022-12-22T23:23:58.113Z,6.08
2022-12-22T23:26:10.103Z,6.07
2022-12-22T23:28:22.300Z,6.05
2022-12-22T23:30:34.712Z,6.02
2022-12-22T23:32:46.804Z,5.99
2022-12-22T23:34:58.388Z,5.96
2022-12-22T23:37:15.188Z,5.96
2022-12-22T23:39:31.192Z,5.94
2022-12-22T23:41:44.305Z,5.91
2022-12-22T23:43:57.332Z,5.89
2022-12-22T23:46:13.137Z,5.88
2022-12-22T23:48:25.612Z,5.88
2022-12-22T23:50:37.505Z,5.85
2022-12-22T23:52:51.341Z,5.83
2022-12-22T23:55:03.030Z,5.82
2022-12-22T23:57:14.614Z,5.80
2022-12-22T23:59:26.303Z,5.78
